Time;durP1;ratioP1;P1;durP2;ratioP2;P2;SDS_P1;SDS_P2;PMS_P1;PMS_P2;Temp;Humidity;BMP_temperature;BMP_pressure;BME280_temperature;BME280_humidity;BME280_pressure;Samples;Min_cycle;Max_cycle;Signal;HPM_P1;HPM_P2
2022/12/25 00:00:26;;;;;;;78.93;24.10;;;6.20;99.90;;;;;;5114173;27;20478;-47
2022/12/25 00:02:51;;;;;;;68.53;23.58;;;6.20;99.90;;;;;;5113762;27;20497;-50
2022/12/25 00:05:17;;;;;;;80.72;24.02;;;5.30;99.90;;;;;;5114126;28;20043;-48
2022/12/25 00:07:43;;;;;;;79.15;24.42;;;5.40;99.90;;;;;;5113947;28;20043;-50
2022/12/25 00:10:09;;;;;;;72.05;23.30;;;5.40;99.90;;;;;;5113765;28;20436;-49
2022/12/25 00:12:35;;;;;;;72.68;23.50;;;5.50;99.90;;;;;;5113362;28;20510;-48
2022/12/25 00:15:00;;;;;;;69.38;22.75;;;6.10;99.90;;;;;;5113952;28;20122;-49
2022/12/25 00:17:26;;;;;;;76.88;24.33;;;6.00;99.90;;;;;;5113819;28;20053;-47
2022/12/25 00:19:52;;;;;;;83.53;24.27;;;5.30;99.90;;;;;;5113613;28;20543;-50
2022/12/25 00:22:18;;;;;;;82.75;24.70;;;6.10;99.90;;;;;;5120062;27;20048;-47
2022/12/25 00:24:45;;;;;;;81.75;24.52;;;5.90;99.90;;;;;;5113829;28;20040;-50
2022/12/25 00:27:11;;;;;;;101.30;26.73;;;6.10;99.90;;;;;;5113026;28;20046;-49
2022/12/25 00:29:37;;;;;;;83.20;24.55;;;5.30;99.90;;;;;;5112140;28;20047;-46
2022/12/25 00:32:03;;;;;;;83.60;25.75;;;5.30;99.90;;;;;;5113566;27;20092;-49
2022/12/25 00:34:28;;;;;;;76.45;23.13;;;5.50;99.90;;;;;;5113610;28;20114;-51
2022/12/25 00:36:54;;;;;;;71.85;24.95;;;5.80;99.90;;;;;;5110999;28;20064;-47
2022/12/25 00:39:20;;;;;;;93.22;24.88;;;5.40;99.90;;;;;;5112797;27;20387;-50
2022/12/25 00:44:30;;;;;;;80.60;25.73;;;6.40;99.90;;;;;;5113126;28;20040;-48
2022/12/25 00:46:55;;;;;;;77.65;25.92;;;5.90;99.90;;;;;;5113109;28;20039;-47
2022/12/25 00:49:25;;;;;;;82.90;23.40;;;5.90;99.90;;;;;;5113040;28;20445;-50
2022/12/25 00:51:51;;;;;;;80.13;24.63;;;6.50;99.90;;;;;;5113274;28;20080;-47
2022/12/25 00:54:17;;;;;;;68.65;23.80;;;6.50;99.90;;;;;;5113291;28;20032;-47
2022/12/25 00:56:43;;;;;;;84.20;24.77;;;6.10;99.90;;;;;;5115982;27;20454;-49
2022/12/25 00:59:10;;;;;;;67.90;22.02;;;6.40;99.90;;;;;;5112789;28;20144;-47
2022/12/25 01:01:35;;;;;;;77.32;24.25;;;5.90;99.90;;;;;;5112576;28;20039;-47
2022/12/25 01:04:01;;;;;;;69.03;22.38;;;5.80;99.90;;;;;;5113005;28;20038;-48
2022/12/25 01:06:27;;;;;;;76.13;26.02;;;6.50;99.90;;;;;;5112824;28;20176;-48
2022/12/25 01:11:37;;;;;;;67.28;22.55;;;6.50;99.90;;;;;;5112367;28;20036;-50
2022/12/25 01:14:03;;;;;;;71.18;23.33;;;6.20;99.90;;;;;;5102690;28;20482;-50
2022/12/25 01:16:29;;;;;;;70.75;23.00;;;6.00;99.90;;;;;;5112681;28;20069;-47
2022/12/25 01:18:55;;;;;;;70.03;24.55;;;6.00;99.90;;;;;;5112754;28;20423;-50
2022/12/25 01:21:21;;;;;;;76.28;26.63;;;6.30;99.90;;;;;;5110610;27;20077;-49
2022/12/25 01:23:49;;;;;;;69.13;23.48;;;6.70;99.90;;;;;;5112687;28;20506;-47
2022/12/25 01:26:16;;;;;;;68.72;22.45;;;6.30;99.90;;;;;;5111866;27;20043;-46
2022/12/25 01:28:42;;;;;;;66.35;24.08;;;6.60;99.90;;;;;;5112070;28;20589;-48
2022/12/25 01:31:10;;;;;;;61.65;22.83;;;6.80;99.90;;;;;;5112402;28;20383;-51
2022/12/25 01:33:37;;;;;;;68.30;23.33;;;6.90;99.90;;;;;;5112026;28;20043;-47
2022/12/25 01:36:04;;;;;;;58.20;21.52;;;6.50;99.90;;;;;;5112256;28;20122;-47
2022/12/25 01:38:30;;;;;;;79.40;24.38;;;7.00;99.90;;;;;;5112300;28;20195;-48
2022/12/25 01:40:55;;;;;;;68.30;21.77;;;6.30;99.90;;;;;;5110847;28;20077;-47
2022/12/25 01:43:30;;;;;;;79.18;23.70;;;6.60;99.90;;;;;;5113765;27;20062;-49
2022/12/25 01:45:56;;;;;;;65.18;21.48;;;6.50;99.90;;;;;;5112129;27;20081;-48
2022/12/25 01:48:31;;;;;;;71.93;22.17;;;6.90;99.90;;;;;;5112080;28;20050;-47
2022/12/25 01:51:16;;;;;;;63.75;21.80;;;7.00;99.90;;;;;;5111742;28;20040;-49
2022/12/25 01:53:42;;;;;;;68.25;21.52;;;7.10;99.90;;;;;;5111701;28;20031;-47
2022/12/25 01:56:08;;;;;;;58.17;22.25;;;6.20;99.90;;;;;;5111906;28;20031;-47
2022/12/25 01:58:34;;;;;;;67.18;22.00;;;7.20;99.90;;;;;;5111556;28;20051;-51
2022/12/25 02:01:00;;;;;;;67.68;22.52;;;7.00;99.90;;;;;;5111651;28;20129;-47
2022/12/25 02:03:26;;;;;;;61.55;21.50;;;7.00;99.90;;;;;;5111932;28;20103;-49
2022/12/25 02:05:53;;;;;;;69.32;22.42;;;7.00;99.90;;;;;;5119145;27;20051;-48
2022/12/25 02:08:20;;;;;;;67.03;22.52;;;7.30;99.90;;;;;;5113544;28;20052;-47
2022/12/25 02:10:46;;;;;;;57.58;22.23;;;6.60;99.90;;;;;;5110984;28;20035;-50
2022/12/25 02:13:15;;;;;;;57.63;21.25;;;7.10;99.90;;;;;;5111687;28;20038;-48
2022/12/25 02:15:55;;;;;;;66.53;23.00;;;6.50;99.90;;;;;;5118944;27;20089;-48
2022/12/25 02:18:44;;;;;;;57.58;22.08;;;7.20;99.90;;;;;;5111530;28;20146;-50
2022/12/25 02:21:28;;;;;;;66.78;22.35;;;7.00;99.90;;;;;;5111514;28;20057;-49
2022/12/25 02:24:16;;;;;;;64.20;21.75;;;6.50;99.90;;;;;;5111507;28;20413;-47
2022/12/25 02:26:53;;;;;;;55.50;21.48;;;7.40;99.90;;;;;;5081879;28;20048;-51
2022/12/25 02:29:41;;;;;;;63.83;21.88;;;7.00;99.90;;;;;;5111142;28;20052;-48
2022/12/25 02:32:41;;;;;;;60.58;22.23;;;6.60;99.90;;;;;;5111468;28;20497;-47
2022/12/25 02:35:10;;;;;;;60.42;22.40;;;6.90;99.90;;;;;;5110263;28;20031;-49
2022/12/25 02:37:50;;;;;;;75.25;23.42;;;6.60;99.90;;;;;;5111005;28;20054;-50
2022/12/25 02:40:44;;;;;;;60.63;24.10;;;7.40;99.90;;;;;;5111399;28;20039;-47
2022/12/25 03:11:29;;;;;;;52.28;18.20;;;7.40;99.90;;;;;;5109972;28;20040;-51
2022/12/25 03:11:42;;;;;;;62.47;19.88;;;7.30;99.90;;;;;;5110072;28;20042;-50
2022/12/25 03:16:55;;;;;;;67.13;19.92;;;7.10;99.90;;;;;;5111307;28;20073;-50
2022/12/25 03:27:43;;;;;;;;;;;7.00;99.90;;;;;;5114886;28;20541;-49
2022/12/25 03:33:07;;;;;;;53.97;19.08;;;6.50;99.90;;;;;;5114791;28;20385;-48
2022/12/25 03:35:43;;;;;;;62.45;20.02;;;6.50;99.90;;;;;;5111848;28;20035;-48
2022/12/25 04:36:56;;;;;;;56.13;22.42;;;6.60;99.90;;;;;;5113445;28;20031;-50
2022/12/25 04:39:22;;;;;;;60.80;24.40;;;6.80;99.90;;;;;;5112712;28;20096;-51
2022/12/25 04:41:47;;;;;;;64.22;25.42;;;7.50;99.90;;;;;;5112820;27;20107;-47
2022/12/25 04:44:13;;;;;;;68.82;24.77;;;7.60;99.90;;;;;;5124514;27;20036;-49
2022/12/25 04:46:39;;;;;;;67.13;24.55;;;7.30;99.90;;;;;;5113367;27;20035;-49
2022/12/25 04:49:04;;;;;;;58.67;23.40;;;7.80;99.90;;;;;;5113299;28;20074;-48
2022/12/25 04:51:30;;;;;;;64.68;24.50;;;7.90;99.90;;;;;;5113059;27;20039;-49
2022/12/25 04:53:56;;;;;;;69.45;26.27;;;7.60;99.90;;;;;;5111560;28;20035;-49
2022/12/25 04:56:22;;;;;;;65.78;26.73;;;7.20;99.90;;;;;;5113250;28;20130;-48
2022/12/25 04:58:48;;;;;;;72.78;26.30;;;7.30;99.90;;;;;;5111908;28;20493;-49
2022/12/25 05:01:14;;;;;;;69.47;26.40;;;7.70;99.90;;;;;;5113187;27;20442;-49
2022/12/25 05:03:40;;;;;;;70.90;26.08;;;7.30;99.90;;;;;;5113092;27;20115;-51
2022/12/25 05:06:07;;;;;;;71.53;26.42;;;8.00;99.90;;;;;;5110679;28;20103;-49
2022/12/25 05:08:34;;;;;;;69.75;26.42;;;7.30;99.90;;;;;;5112920;28;20310;-49
2022/12/25 05:11:04;;;;;;;65.32;26.35;;;7.30;99.90;;;;;;5112152;28;20060;-50
2022/12/25 05:13:31;;;;;;;74.68;27.17;;;8.10;99.90;;;;;;5112121;28;20035;-48
2022/12/25 05:15:56;;;;;;;77.68;28.63;;;7.50;99.90;;;;;;5116741;27;20499;-50
2022/12/25 05:18:22;;;;;;;66.35;26.88;;;8.00;99.90;;;;;;5112600;28;20043;-49
2022/12/25 05:20:54;;;;;;;67.55;27.50;;;8.20;99.90;;;;;;5113110;28;20039;-48
2022/12/25 05:23:21;;;;;;;69.30;26.17;;;7.60;99.90;;;;;;5112022;28;20045;-49
2022/12/25 05:25:46;;;;;;;69.63;27.00;;;7.70;99.90;;;;;;5110251;28;20081;-47
2022/12/25 05:28:12;;;;;;;79.38;27.92;;;7.80;99.90;;;;;;5110344;28;20048;-49
2022/12/25 05:30:38;;;;;;;72.63;27.05;;;7.90;99.90;;;;;;5112524;28;20031;-50
2022/12/25 05:33:04;;;;;;;74.80;27.98;;;7.60;99.90;;;;;;5112254;28;20169;-48
2022/12/25 05:35:30;;;;;;;65.20;25.70;;;8.80;99.90;;;;;;5112022;28;20494;-48
2022/12/25 05:37:56;;;;;;;60.85;26.85;;;7.60;99.90;;;;;;5112114;28;20036;-48
2022/12/25 05:40:22;;;;;;;67.57;27.25;;;8.30;99.90;;;;;;5111974;28;20054;-48
2022/12/25 05:42:48;;;;;;;74.72;26.15;;;7.80;99.90;;;;;;5110988;28;20065;-48
2022/12/25 05:45:13;;;;;;;65.88;26.33;;;7.70;99.90;;;;;;5112164;28;20164;-47
2022/12/25 05:47:39;;;;;;;58.53;26.17;;;8.10;99.90;;;;;;5111780;28;20448;-47
2022/12/25 05:50:05;;;;;;;67.57;25.67;;;8.30;99.90;;;;;;5111322;28;20028;-49
2022/12/25 05:52:32;;;;;;;60.17;25.60;;;7.70;99.90;;;;;;5110126;28;20039;-47
2022/12/25 05:54:59;;;;;;;70.57;27.85;;;8.40;99.90;;;;;;5129846;27;20035;-49
2022/12/25 05:57:27;;;;;;;59.40;25.90;;;8.20;99.90;;;;;;5112049;27;20048;-50
2022/12/25 05:59:53;;;;;;;57.65;25.40;;;8.00;99.90;;;;;;5118017;27;20054;-46
2022/12/25 06:02:19;;;;;;;75.60;27.40;;;8.40;99.90;;;;;;5111583;28;20367;-48
2022/12/25 06:04:44;;;;;;;70.20;27.73;;;8.00;99.90;;;;;;5100417;28;20071;-48
2022/12/25 06:07:10;;;;;;;72.63;26.08;;;7.80;99.90;;;;;;5111575;28;20596;-47
2022/12/25 06:09:36;;;;;;;61.13;24.15;;;7.90;99.90;;;;;;5120418;27;20051;-48
2022/12/25 06:12:01;;;;;;;54.88;23.90;;;8.20;99.90;;;;;;5110304;27;20108;-47
2022/12/25 06:14:27;;;;;;;66.60;25.85;;;7.80;99.90;;;;;;5111806;28;20204;-47
2022/12/25 06:16:53;;;;;;;59.05;25.65;;;7.80;99.90;;;;;;5111234;28;20044;-47
2022/12/25 06:19:20;;;;;;;56.55;24.40;;;8.60;99.90;;;;;;5100932;28;20046;-50
2022/12/25 06:21:46;;;;;;;60.78;25.05;;;7.90;99.90;;;;;;5110096;28;20036;-50
2022/12/25 06:24:12;;;;;;;47.97;23.55;;;7.90;99.90;;;;;;5111574;28;20039;-47
2022/12/25 06:26:37;;;;;;;58.28;24.67;;;8.60;99.90;;;;;;5108013;28;20048;-49
2022/12/25 06:29:03;;;;;;;56.95;24.65;;;7.80;99.90;;;;;;5111231;28;20051;-53
2022/12/25 06:31:30;;;;;;;51.50;23.75;;;8.50;99.90;;;;;;5110781;28;20051;-49
2022/12/25 06:33:55;;;;;;;54.17;23.88;;;8.30;99.90;;;;;;5111097;28;20031;-51
2022/12/25 06:36:23;;;;;;;54.22;23.35;;;8.70;99.90;;;;;;5109699;28;20043;-48
2022/12/25 06:38:50;;;;;;;52.33;23.02;;;8.00;99.90;;;;;;5111470;28;20115;-48
2022/12/25 06:41:18;;;;;;;53.75;23.15;;;7.90;99.90;;;;;;5110956;28;20039;-49
2022/12/25 06:43:55;;;;;;;44.95;22.77;;;8.30;99.90;;;;;;5110473;28;20024;-49
2022/12/25 06:46:21;;;;;;;51.67;23.17;;;8.10;99.90;;;;;;5110672;28;20027;-49
2022/12/25 06:48:48;;;;;;;45.28;22.70;;;8.40;99.90;;;;;;5129559;28;20359;-51
2022/12/25 06:51:18;;;;;;;46.08;22.95;;;7.80;99.90;;;;;;5131561;27;20078;-49
2022/12/25 06:53:45;;;;;;;42.03;22.75;;;8.50;99.90;;;;;;5120505;28;20043;-48
2022/12/25 06:56:14;;;;;;;39.50;20.17;;;8.10;99.90;;;;;;5115154;28;20085;-47
2022/12/25 06:58:48;;;;;;;52.45;21.90;;;8.50;99.90;;;;;;5115084;28;20036;-48
2022/12/25 07:01:28;;;;;;;46.50;21.27;;;8.00;99.90;;;;;;5115408;28;20463;-47
2022/12/25 07:03:57;;;;;;;44.22;20.00;;;8.60;99.90;;;;;;5115458;28;20043;-48
2022/12/25 07:06:23;;;;;;;42.75;20.23;;;8.60;99.90;;;;;;5111663;28;20100;-48
2022/12/25 07:08:49;;;;;;;39.95;20.58;;;8.40;99.90;;;;;;5115457;28;20032;-50
2022/12/25 07:11:14;;;;;;;45.03;19.83;;;8.40;99.90;;;;;;5114767;28;20469;-49
2022/12/25 07:13:40;;;;;;;37.80;18.75;;;7.90;99.90;;;;;;5114683;28;20035;-48
2022/12/25 07:16:06;;;;;;;35.85;19.25;;;7.80;99.90;;;;;;5115091;28;20039;-47
2022/12/25 07:18:33;;;;;;;36.05;19.27;;;7.90;99.90;;;;;;5115049;28;20047;-48
2022/12/25 07:21:04;;;;;;;36.65;19.92;;;8.30;99.90;;;;;;5112484;27;20047;-47
2022/12/25 07:23:29;;;;;;;36.03;19.33;;;8.70;99.90;;;;;;5114908;28;20160;-48
2022/12/25 07:25:57;;;;;;;37.15;18.98;;;7.90;99.90;;;;;;5114630;28;20560;-47
2022/12/25 07:28:23;;;;;;;38.65;18.23;;;7.90;99.90;;;;;;5114443;28;20197;-48
2022/12/25 07:30:49;;;;;;;35.95;19.35;;;8.60;99.90;;;;;;5114471;27;20126;-48
2022/12/25 07:33:15;;;;;;;34.45;17.92;;;8.40;99.90;;;;;;5114526;28;20038;-47
2022/12/25 07:35:41;;;;;;;38.50;18.42;;;8.60;99.90;;;;;;5114788;27;20046;-48
2022/12/25 07:38:07;;;;;;;28.77;17.52;;;8.60;99.90;;;;;;5114698;28;20040;-48
2022/12/25 07:40:33;;;;;;;33.70;16.98;;;8.60;99.90;;;;;;5114496;28;20448;-48
2022/12/25 07:42:58;;;;;;;35.38;17.90;;;7.80;99.90;;;;;;5119338;27;20039;-49
2022/12/25 07:45:24;;;;;;;33.08;18.10;;;8.90;99.90;;;;;;5114337;28;20031;-49
2022/12/25 07:47:50;;;;;;;29.25;16.27;;;8.60;99.90;;;;;;5111734;28;20044;-49
2022/12/25 07:50:16;;;;;;;36.50;17.10;;;7.90;99.90;;;;;;5114554;28;20379;-49
2022/12/25 07:52:42;;;;;;;32.05;16.83;;;7.90;99.90;;;;;;5113242;28;20075;-49
2022/12/25 07:55:08;;;;;;;34.00;17.02;;;7.90;99.90;;;;;;5114381;28;20450;-48
2022/12/25 07:57:35;;;;;;;34.50;17.20;;;8.50;99.90;;;;;;5114311;28;20039;-50
2022/12/25 08:00:03;;;;;;;26.08;15.15;;;7.90;99.90;;;;;;5114316;28;20491;-49
2022/12/25 08:02:29;;;;;;;27.33;15.80;;;8.10;99.90;;;;;;5114113;28;20531;-48
2022/12/25 08:04:54;;;;;;;33.55;15.43;;;7.90;99.90;;;;;;5112721;28;20039;-48
2022/12/25 08:07:21;;;;;;;34.17;15.27;;;8.50;99.90;;;;;;5108990;28;20078;-49
2022/12/25 08:09:47;;;;;;;29.73;15.48;;;7.70;99.90;;;;;;5112034;28;20039;-48
2022/12/25 08:12:12;;;;;;;32.10;15.75;;;7.90;99.90;;;;;;5113176;28;20292;-49
2022/12/25 08:14:38;;;;;;;31.73;14.88;;;7.90;99.90;;;;;;5112719;28;20042;-52
2022/12/25 08:17:04;;;;;;;30.40;15.57;;;8.00;99.90;;;;;;5119432;27;20046;-49
2022/12/25 08:19:30;;;;;;;34.45;15.93;;;8.50;99.90;;;;;;5113027;27;20046;-48
2022/12/25 08:21:55;;;;;;;31.33;14.95;;;8.20;99.90;;;;;;5119202;27;20402;-51
2022/12/25 08:24:21;;;;;;;35.92;16.08;;;8.10;99.90;;;;;;5113858;28;20387;-48
2022/12/25 08:26:47;;;;;;;31.70;15.80;;;8.50;99.90;;;;;;5119744;27;20445;-49
2022/12/25 08:29:14;;;;;;;32.50;14.75;;;8.00;99.90;;;;;;5103354;27;20047;-50
2022/12/25 08:31:41;;;;;;;28.77;14.32;;;8.00;99.90;;;;;;5103625;28;20110;-50
2022/12/25 08:34:07;;;;;;;33.60;16.02;;;7.80;99.90;;;;;;5105010;27;20035;-50
2022/12/25 08:36:33;;;;;;;30.98;14.98;;;7.90;99.90;;;;;;5103768;28;20066;-50
2022/12/25 08:38:59;;;;;;;25.02;14.90;;;8.60;99.90;;;;;;5102712;28;20050;-53
2022/12/25 08:41:25;;;;;;;27.17;15.10;;;7.90;99.90;;;;;;5103646;28;20040;-48
2022/12/25 08:43:51;;;;;;;33.97;14.60;;;7.80;99.90;;;;;;5104111;28;20031;-49
2022/12/25 08:46:16;;;;;;;28.70;14.13;;;8.40;99.90;;;;;;5084976;27;20057;-50
2022/12/25 08:48:44;;;;;;;32.03;15.48;;;8.60;99.90;;;;;;5102757;28;20505;-49
2022/12/25 08:51:16;;;;;;;30.05;14.23;;;8.20;99.90;;;;;;5103015;28;20127;-51
2022/12/25 08:53:43;;;;;;;24.17;14.20;;;8.10;99.90;;;;;;5103307;28;20027;-50
2022/12/25 08:56:09;;;;;;;28.83;14.32;;;8.60;99.90;;;;;;5100365;28;20035;-52
2022/12/25 08:58:35;;;;;;;32.55;14.27;;;8.60;99.90;;;;;;5104131;28;20031;-50
2022/12/25 09:01:01;;;;;;;27.23;13.90;;;7.80;99.90;;;;;;5100940;28;20043;-52
2022/12/25 09:03:27;;;;;;;24.10;14.15;;;8.60;99.90;;;;;;5097360;28;20046;-50
2022/12/25 09:05:53;;;;;;;29.27;14.93;;;7.80;99.90;;;;;;5098872;27;20500;-51
2022/12/25 09:08:20;;;;;;;28.10;14.50;;;7.80;99.90;;;;;;5102284;28;20063;-49
2022/12/25 09:10:47;;;;;;;29.27;13.73;;;8.40;99.90;;;;;;5104407;28;20112;-49
2022/12/25 09:13:13;;;;;;;26.60;13.10;;;8.20;99.90;;;;;;5101495;28;20112;-51
2022/12/25 09:15:39;;;;;;;28.65;14.13;;;8.20;99.90;;;;;;5103073;28;20023;-49
2022/12/25 09:18:05;;;;;;;25.05;13.80;;;8.10;99.90;;;;;;5103040;28;20058;-51
2022/12/25 09:20:31;;;;;;;24.85;13.45;;;7.80;99.90;;;;;;5103636;28;20063;-49
2022/12/25 09:23:06;;;;;;;29.42;13.35;;;8.20;99.90;;;;;;5102481;28;20398;-50
2022/12/25 09:25:31;;;;;;;27.85;14.25;;;8.60;99.90;;;;;;5085941;28;20518;-52
2022/12/25 09:27:57;;;;;;;31.00;14.40;;;7.90;99.90;;;;;;5102809;28;20161;-48
2022/12/25 09:30:23;;;;;;;30.75;14.45;;;8.60;99.90;;;;;;5101357;28;20051;-52
2022/12/25 09:32:49;;;;;;;35.38;14.77;;;7.80;99.90;;;;;;5102300;28;20043;-47
2022/12/25 09:35:17;;;;;;;24.60;12.85;;;7.90;99.90;;;;;;5101734;28;20046;-48
2022/12/25 09:37:43;;;;;;;26.77;13.60;;;7.90;99.90;;;;;;5097076;28;20035;-48
2022/12/25 09:40:17;;;;;;;28.50;13.73;;;8.60;99.90;;;;;;5098702;28;20536;-50
2022/12/25 09:42:43;;;;;;;25.75;13.93;;;8.40;99.90;;;;;;5099063;28;20445;-51
2022/12/25 09:45:24;;;;;;;28.00;13.40;;;8.30;99.90;;;;;;5101119;28;20043;-48
2022/12/25 09:47:54;;;;;;;25.67;13.70;;;8.60;99.90;;;;;;5101577;28;20118;-49
2022/12/25 09:50:45;;;;;;;31.55;14.85;;;8.30;99.90;;;;;;5102306;28;20039;-50
2022/12/25 09:53:24;;;;;;;24.25;14.00;;;7.90;99.90;;;;;;5101821;28;20106;-49
2022/12/25 09:56:08;;;;;;;27.73;14.48;;;8.70;99.90;;;;;;5097498;28;20046;-49
2022/12/25 09:58:34;;;;;;;25.17;13.83;;;8.70;99.90;;;;;;5100864;28;20039;-48
2022/12/25 10:01:11;;;;;;;28.65;14.85;;;8.50;99.90;;;;;;5102687;27;20046;-48
2022/12/25 10:04:00;;;;;;;27.52;13.48;;;8.70;99.90;;;;;;5100990;28;20035;-50
2022/12/25 10:06:51;;;;;;;27.15;14.15;;;8.40;99.90;;;;;;5071459;28;20092;-49
2022/12/25 10:09:38;;;;;;;27.60;13.27;;;8.00;99.90;;;;;;5100164;28;20040;-47
2022/12/25 10:12:38;;;;;;;25.27;15.00;;;8.10;99.90;;;;;;5100242;28;20029;-50
2022/12/25 10:15:13;;;;;;;23.90;13.13;;;8.10;99.90;;;;;;5100781;28;20030;-49
2022/12/25 10:17:57;;;;;;;26.33;13.10;;;8.80;99.90;;;;;;5099840;27;20044;-49
2022/12/25 10:20:29;;;;;;;25.48;13.13;;;8.30;99.90;;;;;;5101205;28;20363;-49
2022/12/25 10:22:59;;;;;;;24.35;12.45;;;8.80;99.90;;;;;;5101155;28;20514;-49
2022/12/25 10:25:25;;;;;;;32.03;14.20;;;8.80;99.90;;;;;;5098403;28;20390;-50
2022/12/25 10:28:04;;;;;;;24.55;12.15;;;8.20;99.90;;;;;;5098962;28;20052;-50
2022/12/25 10:30:30;;;;;;;24.85;11.52;;;8.20;99.90;;;;;;5093698;28;20514;-49
2022/12/25 10:32:57;;;;;;;25.42;12.68;;;8.20;99.90;;;;;;5078393;28;20054;-50
2022/12/25 10:35:25;;;;;;;24.10;11.85;;;8.70;99.90;;;;;;5095929;28;20036;-49
2022/12/25 10:38:16;;;;;;;20.05;11.50;;;8.90;99.90;;;;;;5097250;28;20050;-49
2022/12/25 10:40:59;;;;;;;22.70;11.80;;;9.00;99.90;;;;;;5094245;27;20043;-50
2022/12/25 10:43:46;;;;;;;23.87;12.13;;;8.80;99.90;;;;;;5100666;28;20385;-50
2022/12/25 10:46:14;;;;;;;24.27;12.27;;;8.50;99.90;;;;;;5110032;28;20088;-51
2022/12/25 10:48:47;;;;;;;23.85;10.95;;;8.80;99.90;;;;;;5101296;28;20048;-48
2022/12/25 10:51:13;;;;;;;22.52;11.20;;;8.80;99.90;;;;;;5101082;28;20031;-52
2022/12/25 10:53:42;;;;;;;21.00;11.57;;;8.70;99.90;;;;;;5098959;28;20024;-47
2022/12/25 10:56:17;;;;;;;23.05;12.32;;;8.50;99.90;;;;;;5101289;28;20122;-51
2022/12/25 10:58:43;;;;;;;26.73;11.65;;;9.10;99.90;;;;;;5100680;28;20452;-50
2022/12/25 11:01:09;;;;;;;20.33;14.52;;;8.80;99.90;;;;;;5100039;28;20038;-49
2022/12/25 11:03:42;;;;;;;22.38;12.82;;;9.00;99.90;;;;;;5101013;28;20101;-50
2022/12/25 11:06:24;;;;;;;25.07;12.60;;;8.70;99.90;;;;;;5101280;28;20487;-48
2022/12/25 11:09:01;;;;;;;25.00;12.88;;;8.50;99.90;;;;;;5100799;28;20105;-50
2022/12/25 11:11:28;;;;;;;21.17;12.48;;;8.60;99.90;;;;;;5100284;28;20036;-52
2022/12/25 11:14:00;;;;;;;27.58;11.75;;;9.10;99.90;;;;;;5098827;28;20034;-51
2022/12/25 11:16:36;;;;;;;22.70;11.55;;;8.50;99.90;;;;;;5099007;28;20041;-51
2022/12/25 11:19:18;;;;;;;20.02;11.32;;;8.60;99.90;;;;;;5098830;28;20051;-53
2022/12/25 11:21:51;;;;;;;21.75;11.88;;;8.90;99.90;;;;;;5099239;28;20114;-48
2022/12/25 11:24:21;;;;;;;24.45;11.90;;;9.10;99.90;;;;;;5099945;28;20043;-47
2022/12/25 11:26:53;;;;;;;24.10;12.02;;;9.20;99.90;;;;;;5099922;28;20112;-47
2022/12/25 11:29:40;;;;;;;25.63;13.05;;;9.20;99.90;;;;;;5100865;28;20517;-49
2022/12/25 11:32:23;;;;;;;23.67;12.38;;;9.30;99.90;;;;;;5098844;28;20507;-51
2022/12/25 11:34:50;;;;;;;21.17;11.63;;;9.10;99.90;;;;;;5098065;28;20100;-50
2022/12/25 11:37:38;;;;;;;22.25;12.13;;;9.00;99.90;;;;;;5101237;28;20439;-48
2022/12/25 11:40:05;;;;;;;21.40;11.50;;;8.80;99.90;;;;;;5096772;28;20428;-48
2022/12/25 11:42:36;;;;;;;23.13;11.63;;;9.10;99.90;;;;;;5099723;28;20039;-50
2022/12/25 11:45:18;;;;;;;24.00;11.70;;;9.50;99.90;;;;;;5105524;28;20038;-51
2022/12/25 11:47:45;;;;;;;18.75;10.63;;;9.30;99.90;;;;;;5101876;28;20123;-49
2022/12/25 11:50:24;;;;;;;20.20;11.02;;;9.40;99.90;;;;;;5103252;28;20040;-53
2022/12/25 11:52:52;;;;;;;18.38;11.68;;;8.80;99.90;;;;;;5096310;28;20039;-52
2022/12/25 11:55:28;;;;;;;23.30;11.30;;;9.00;99.90;;;;;;5104148;28;20195;-49
2022/12/25 11:58:00;;;;;;;22.38;10.73;;;8.80;99.90;;;;;;5099814;28;20063;-52
2022/12/25 12:00:29;;;;;;;19.15;10.50;;;9.10;99.90;;;;;;5103829;28;20107;-48
2022/12/25 12:03:21;;;;;;;20.00;10.32;;;8.80;99.90;;;;;;5102157;27;20039;-51
2022/12/25 12:05:56;;;;;;;21.90;14.13;;;9.40;99.90;;;;;;5101867;28;20035;-51
2022/12/25 12:08:21;;;;;;;25.98;14.23;;;9.30;99.90;;;;;;5102510;28;20514;-50
2022/12/25 12:11:17;;;;;;;24.33;15.82;;;8.80;99.90;;;;;;5103712;28;20047;-50
2022/12/25 12:14:12;;;;;;;18.40;12.18;;;9.40;99.90;;;;;;5103240;28;20483;-49
2022/12/25 12:16:37;;;;;;;21.30;11.07;;;8.70;99.90;;;;;;5098366;28;20065;-49
2022/12/25 12:19:26;;;;;;;20.60;11.30;;;8.90;99.90;;;;;;5101786;28;20611;-51
2022/12/25 12:21:59;;;;;;;22.02;12.82;;;9.40;99.90;;;;;;5092929;27;20047;-50
2022/12/25 12:24:39;;;;;;;22.63;11.45;;;9.30;99.90;;;;;;5097496;28;20024;-53
2022/12/25 12:27:26;;;;;;;23.65;13.40;;;8.80;99.90;;;;;;5101065;28;20382;-52
2022/12/25 12:29:56;;;;;;;23.80;13.82;;;9.40;99.90;;;;;;5102647;28;20193;-49
2022/12/25 12:32:41;;;;;;;23.17;13.20;;;8.90;99.90;;;;;;5100814;28;20043;-50
2022/12/25 12:35:18;;;;;;;22.67;11.93;;;9.10;99.90;;;;;;5100865;28;20493;-49
2022/12/25 12:38:08;;;;;;;23.48;13.20;;;9.40;99.90;;;;;;5100940;28;20709;-48
2022/12/25 12:40:56;;;;;;;29.17;17.98;;;9.40;99.90;;;;;;5098958;28;20498;-52
2022/12/25 12:43:43;;;;;;;27.70;16.52;;;9.20;99.90;;;;;;5102170;28;20036;-49
2022/12/25 12:46:17;;;;;;;21.65;13.65;;;9.00;99.90;;;;;;5101451;28;20070;-50
2022/12/25 12:48:47;;;;;;;24.17;14.40;;;9.40;99.90;;;;;;5098105;28;20035;-49
2022/12/25 12:51:26;;;;;;;23.02;12.35;;;9.30;99.90;;;;;;5097676;28;20035;-49
2022/12/25 12:54:23;;;;;;;27.20;14.77;;;8.70;99.90;;;;;;5096808;28;20040;-52
2022/12/25 12:56:58;;;;;;;21.75;13.60;;;9.20;99.90;;;;;;5095125;28;20052;-51
2022/12/25 12:59:26;;;;;;;28.30;15.93;;;8.90;99.90;;;;;;5096887;28;20484;-48
2022/12/25 13:02:12;;;;;;;32.17;24.25;;;9.40;99.90;;;;;;5098131;28;20028;-50
2022/12/25 13:05:26;;;;;;;33.88;18.60;;;8.70;99.90;;;;;;5094868;28;20043;-48
2022/12/25 13:07:59;;;;;;;26.25;16.98;;;9.40;99.90;;;;;;5056212;28;20044;-48
2022/12/25 13:10:31;;;;;;;23.67;16.40;;;8.70;99.90;;;;;;5095313;28;20401;-47
2022/12/25 13:13:02;;;;;;;24.48;14.73;;;9.40;99.90;;;;;;5098136;28;20046;-50
2022/12/25 13:15:31;;;;;;;26.67;16.10;;;9.30;99.90;;;;;;5099105;28;20081;-49
2022/12/25 13:18:11;;;;;;;92.32;73.03;;;9.40;99.90;;;;;;5096927;28;20040;-47
2022/12/25 13:20:58;;;;;;;33.25;21.00;;;8.70;99.90;;;;;;5097553;28;20040;-48
2022/12/25 13:23:25;;;;;;;27.88;17.00;;;8.70;99.90;;;;;;5099802;28;20102;-46
2022/12/25 13:25:57;;;;;;;27.30;16.92;;;9.30;99.90;;;;;;5101869;28;20039;-47
2022/12/25 13:28:28;;;;;;;26.88;17.63;;;8.90;99.90;;;;;;5099572;28;20039;-49
2022/12/25 13:31:02;;;;;;;33.08;19.52;;;8.60;99.90;;;;;;5102910;28;21375;-49
2022/12/25 13:33:28;;;;;;;29.80;19.00;;;8.60;99.90;;;;;;5101452;28;20035;-48
2022/12/25 13:35:54;;;;;;;28.60;16.95;;;8.80;99.90;;;;;;5101399;28;20055;-49
2022/12/25 13:38:22;;;;;;;32.67;19.95;;;9.00;99.90;;;;;;5102871;27;20044;-48
2022/12/25 13:43:40;;;;;;;32.10;21.67;;;8.60;99.90;;;;;;5094215;28;20083;-50
2022/12/25 13:46:06;;;;;;;44.85;31.65;;;9.10;99.90;;;;;;5100295;28;20371;-49
2022/12/25 13:48:31;;;;;;;44.38;29.15;;;9.30;99.90;;;;;;5100266;28;20097;-51
2022/12/25 13:50:59;;;;;;;44.92;29.75;;;8.90;99.90;;;;;;5099892;28;20043;-50
2022/12/25 13:53:25;;;;;;;49.25;29.85;;;8.70;99.90;;;;;;5100365;28;20043;-49
2022/12/25 13:55:53;;;;;;;38.00;25.42;;;9.10;99.90;;;;;;5093566;28;20158;-49
2022/12/25 13:58:29;;;;;;;36.67;24.08;;;9.20;99.90;;;;;;5103882;27;20131;-51
2022/12/25 14:01:01;;;;;;;35.72;23.48;;;9.20;99.90;;;;;;5096262;28;20093;-48
2022/12/25 14:03:35;;;;;;;37.05;26.73;;;8.60;99.90;;;;;;5094735;27;20051;-48
2022/12/25 14:06:02;;;;;;;;;;;8.50;99.90;;;;;;5098555;28;20098;-47
2022/12/25 14:08:31;;;;;;;35.78;24.15;;;9.20;99.90;;;;;;5099628;28;19922;-49
2022/12/25 14:10:57;;;;;;;40.97;24.77;;;8.70;99.90;;;;;;5096786;28;20804;-47
2022/12/25 14:13:27;;;;;;;44.15;23.75;;;8.70;99.90;;;;;;5095431;28;20130;-46
2022/12/25 14:15:55;;;;;;;35.90;22.35;;;9.20;99.90;;;;;;5096967;28;20087;-47
2022/12/25 14:18:23;;;;;;;35.00;21.92;;;8.60;99.90;;;;;;5098465;28;20038;-49
2022/12/25 14:21:01;;;;;;;47.17;24.98;;;8.60;99.90;;;;;;5097735;28;20048;-48
2022/12/25 14:23:45;;;;;;;34.10;22.20;;;8.80;99.90;;;;;;5098156;28;20050;-49
2022/12/25 14:26:20;;;;;;;38.00;23.23;;;8.60;99.90;;;;;;5097962;28;20525;-49
2022/12/25 14:28:52;;;;;;;35.95;21.88;;;9.20;99.90;;;;;;5098406;28;20078;-50
2022/12/25 14:31:19;;;;;;;44.13;24.25;;;8.50;99.90;;;;;;5099107;28;20042;-50
2022/12/25 14:33:45;;;;;;;42.70;24.85;;;8.80;99.90;;;;;;5095317;28;20035;-50
2022/12/25 14:36:12;;;;;;;35.30;20.90;;;9.10;99.90;;;;;;5098990;28;20533;-48
2022/12/25 14:38:40;;;;;;;42.35;23.60;;;9.10;99.90;;;;;;5100074;28;20358;-49
2022/12/25 14:41:36;;;;;;;45.67;24.83;;;8.50;99.90;;;;;;5099691;28;20046;-50